sensor_id;sensor_type;location;lat;lon;timestamp;temperature;humidity
18191;DHT22;47004;51.366;12.348;2024-02-16T00:00:21;9.80;99.90
18191;DHT22;47004;51.366;12.348;2024-02-16T00:02:26;9.80;99.90
18191;DHT22;47004;51.366;12.348;2024-02-16T00:04:28;9.80;99.90
18191;DHT22;47004;51.366;12.348;2024-02-16T00:06:29;9.80;99.90
18191;DHT22;47004;51.366;12.348;2024-02-16T00:08:31;9.80;99.90
18191;DHT22;47004;51.366;12.348;2024-02-16T00:10:35;9.80;99.90
18191;DHT22;47004;51.366;12.348;2024-02-16T00:12:37;9.80;99.90
18191;DHT22;47004;51.366;12.348;2024-02-16T00:14:42;9.80;99.90
18191;DHT22;47004;51.366;12.348;2024-02-16T00:16:44;9.80;99.90
18191;DHT22;47004;51.366;12.348;2024-02-16T00:18:45;9.80;99.90
18191;DHT22;47004;51.366;12.348;2024-02-16T00:20:47;9.80;99.90
18191;DHT22;47004;51.366;12.348;2024-02-16T00:22:49;9.80;99.90
18191;DHT22;47004;51.366;12.348;2024-02-16T00:24:52;9.80;99.90
18191;DHT22;47004;51.366;12.348;2024-02-16T00:26:53;9.80;99.90
18191;DHT22;47004;51.366;12.348;2024-02-16T00:28:54;9.80;99.90
18191;DHT22;47004;51.366;12.348;2024-02-16T00:30:58;9.80;99.90
18191;DHT22;47004;51.366;12.348;2024-02-16T00:32:59;9.80;99.90
18191;DHT22;47004;51.366;12.348;2024-02-16T00:35:01;9.80;99.90
18191;DHT22;47004;51.366;12.348;2024-02-16T00:37:03;9.70;99.90
18191;DHT22;47004;51.366;12.348;2024-02-16T00:39:09;9.70;99.90
18191;DHT22;47004;51.366;12.348;2024-02-16T00:41:18;9.70;99.90
18191;DHT22;47004;51.366;12.348;2024-02-16T00:43:20;9.70;99.90
18191;DHT22;47004;51.366;12.348;2024-02-16T00:45:22;9.70;99.90
18191;DHT22;47004;51.366;12.348;2024-02-16T00:47:25;9.70;99.90
18191;DHT22;47004;51.366;12.348;2024-02-16T00:49:27;9.70;99.90
18191;DHT22;47004;51.366;12.348;2024-02-16T00:51:29;9.70;99.90
18191;DHT22;47004;51.366;12.348;2024-02-16T00:53:31;9.70;99.90
18191;DHT22;47004;51.366;12.348;2024-02-16T00:55:32;9.60;99.90
18191;DHT22;47004;51.366;12.348;2024-02-16T00:57:34;9.60;99.90
18191;DHT22;47004;51.366;12.348;2024-02-16T00:59:36;9.60;99.90
18191;DHT22;47004;51.366;12.348;2024-02-16T01:01:38;9.60;99.90
18191;DHT22;47004;51.366;12.348;2024-02-16T01:03:41;9.50;99.90
18191;DHT22;47004;51.366;12.348;2024-02-16T01:05:43;9.50;99.90
18191;DHT22;47004;51.366;12.348;2024-02-16T01:07:45;9.50;99.90
18191;DHT22;47004;51.366;12.348;2024-02-16T01:09:46;9.60;99.90
18191;DHT22;47004;51.366;12.348;2024-02-16T01:11:49;9.50;99.90
18191;DHT22;47004;51.366;12.348;2024-02-16T01:13:51;9.50;99.90
18191;DHT22;47004;51.366;12.348;2024-02-16T01:15:54;9.50;99.90
18191;DHT22;47004;51.366;12.348;2024-02-16T01:17:56;9.60;99.90
18191;DHT22;47004;51.366;12.348;2024-02-16T01:20:02;9.60;99.90
18191;DHT22;47004;51.366;12.348;2024-02-16T01:22:05;9.60;99.90
18191;DHT22;47004;51.366;12.348;2024-02-16T01:24:07;9.60;99.90
18191;DHT22;47004;51.366;12.348;2024-02-16T01:26:09;9.60;99.90
18191;DHT22;47004;51.366;12.348;2024-02-16T01:28:10;9.60;99.90
18191;DHT22;47004;51.366;12.348;2024-02-16T01:30:13;9.60;99.90
18191;DHT22;47004;51.366;12.348;2024-02-16T01:32:16;9.60;99.90
18191;DHT22;47004;51.366;12.348;2024-02-16T01:34:17;9.50;99.90
18191;DHT22;47004;51.366;12.348;2024-02-16T01:36:21;9.50;99.90
18191;DHT22;47004;51.366;12.348;2024-02-16T01:38:23;9.50;99.90
18191;DHT22;47004;51.366;12.348;2024-02-16T01:40:25;9.50;99.90
18191;DHT22;47004;51.366;12.348;2024-02-16T01:42:28;9.50;99.90
18191;DHT22;47004;51.366;12.348;2024-02-16T01:44:29;9.50;99.90
18191;DHT22;47004;51.366;12.348;2024-02-16T01:46:31;9.40;99.90
18191;DHT22;47004;51.366;12.348;2024-02-16T01:48:33;9.40;99.90
18191;DHT22;47004;51.366;12.348;2024-02-16T01:50:35;9.40;99.90
18191;DHT22;47004;51.366;12.348;2024-02-16T01:52:39;9.40;99.90
18191;DHT22;47004;51.366;12.348;2024-02-16T01:54:41;9.40;99.90
18191;DHT22;47004;51.366;12.348;2024-02-16T01:56:42;9.30;99.90
18191;DHT22;47004;51.366;12.348;2024-02-16T01:58:43;9.30;99.90
18191;DHT22;47004;51.366;12.348;2024-02-16T02:00:45;9.30;99.90
18191;DHT22;47004;51.366;12.348;2024-02-16T02:02:47;9.30;99.90
18191;DHT22;47004;51.366;12.348;2024-02-16T02:04:54;9.30;99.90
18191;DHT22;47004;51.366;12.348;2024-02-16T02:06:56;9.30;99.90
18191;DHT22;47004;51.366;12.348;2024-02-16T02:08:59;9.30;99.90
18191;DHT22;47004;51.366;12.348;2024-02-16T02:11:01;9.30;99.90
18191;DHT22;47004;51.366;12.348;2024-02-16T02:13:04;9.30;99.90
18191;DHT22;47004;51.366;12.348;2024-02-16T02:15:06;9.30;99.90
18191;DHT22;47004;51.366;12.348;2024-02-16T02:17:09;9.30;99.90
18191;DHT22;47004;51.366;12.348;2024-02-16T02:19:11;9.30;99.90
18191;DHT22;47004;51.366;12.348;2024-02-16T02:21:16;9.30;99.90
18191;DHT22;47004;51.366;12.348;2024-02-16T02:23:20;9.30;99.90
18191;DHT22;47004;51.366;12.348;2024-02-16T02:25:21;9.30;99.90
18191;DHT22;47004;51.366;12.348;2024-02-16T02:27:23;9.30;99.90
18191;DHT22;47004;51.366;12.348;2024-02-16T02:29:25;9.30;99.90
18191;DHT22;47004;51.366;12.348;2024-02-16T02:31:27;9.30;99.90
18191;DHT22;47004;51.366;12.348;2024-02-16T02:33:29;9.40;99.90
18191;DHT22;47004;51.366;12.348;2024-02-16T02:35:32;9.40;99.90
18191;DHT22;47004;51.366;12.348;2024-02-16T02:37:33;9.40;99.90
18191;DHT22;47004;51.366;12.348;2024-02-16T02:39:37;9.40;99.90
18191;DHT22;47004;51.366;12.348;2024-02-16T02:41:39;9.40;99.90
18191;DHT22;47004;51.366;12.348;2024-02-16T02:43:41;9.40;99.90
18191;DHT22;47004;51.366;12.348;2024-02-16T02:45:43;9.40;99.90
18191;DHT22;47004;51.366;12.348;2024-02-16T02:47:45;9.40;99.90
18191;DHT22;47004;51.366;12.348;2024-02-16T02:49:47;9.40;99.90
18191;DHT22;47004;51.366;12.348;2024-02-16T02:51:49;9.50;99.90
18191;DHT22;47004;51.366;12.348;2024-02-16T02:53:50;9.40;99.90
18191;DHT22;47004;51.366;12.348;2024-02-16T02:55:53;9.40;99.90
18191;DHT22;47004;51.366;12.348;2024-02-16T02:57:54;9.40;99.90
18191;DHT22;47004;51.366;12.348;2024-02-16T03:00:03;9.50;99.90
18191;DHT22;47004;51.366;12.348;2024-02-16T03:02:07;9.50;99.90
18191;DHT22;47004;51.366;12.348;2024-02-16T03:04:09;9.50;99.90
18191;DHT22;47004;51.366;12.348;2024-02-16T03:06:11;9.50;99.90
18191;DHT22;47004;51.366;12.348;2024-02-16T03:08:13;9.50;99.90
18191;DHT22;47004;51.366;12.348;2024-02-16T03:10:15;9.50;99.90
18191;DHT22;47004;51.366;12.348;2024-02-16T03:12:23;9.50;99.90
18191;DHT22;47004;51.366;12.348;2024-02-16T03:14:24;9.50;99.90
18191;DHT22;47004;51.366;12.348;2024-02-16T03:16:25;9.50;99.90
18191;DHT22;47004;51.366;12.348;2024-02-16T03:18:29;9.50;99.90
18191;DHT22;47004;51.366;12.348;2024-02-16T03:20:31;9.50;99.90
18191;DHT22;47004;51.366;12.348;2024-02-16T03:22:33;9.50;99.90
18191;DHT22;47004;51.366;12.348;2024-02-16T03:24:35;9.50;99.90
18191;DHT22;47004;51.366;12.348;2024-02-16T03:26:36;9.50;99.90
18191;DHT22;47004;51.366;12.348;2024-02-16T03:28:39;9.50;99.90
18191;DHT22;47004;51.366;12.348;2024-02-16T03:30:42;9.40;99.90
18191;DHT22;47004;51.366;12.348;2024-02-16T03:32:48;9.50;99.90
18191;DHT22;47004;51.366;12.348;2024-02-16T03:34:49;9.40;99.90
18191;DHT22;47004;51.366;12.348;2024-02-16T03:36:51;9.50;99.90
18191;DHT22;47004;51.366;12.348;2024-02-16T03:38:53;9.50;99.90
18191;DHT22;47004;51.366;12.348;2024-02-16T03:40:55;9.50;99.90
18191;DHT22;47004;51.366;12.348;2024-02-16T03:42:56;9.50;99.90
18191;DHT22;47004;51.366;12.348;2024-02-16T03:45:00;9.50;99.90
18191;DHT22;47004;51.366;12.348;2024-02-16T03:47:02;9.50;99.90
18191;DHT22;47004;51.366;12.348;2024-02-16T03:49:04;9.50;99.90
18191;DHT22;47004;51.366;12.348;2024-02-16T03:51:06;9.50;99.90
18191;DHT22;47004;51.366;12.348;2024-02-16T03:53:08;9.50;99.90
18191;DHT22;47004;51.366;12.348;2024-02-16T03:55:09;9.50;99.90
18191;DHT22;47004;51.366;12.348;2024-02-16T03:57:10;9.50;99.90
18191;DHT22;47004;51.366;12.348;2024-02-16T03:59:12;9.50;99.90
18191;DHT22;47004;51.366;12.348;2024-02-16T04:01:16;9.50;99.90
18191;DHT22;47004;51.366;12.348;2024-02-16T04:03:18;9.50;99.90
18191;DHT22;47004;51.366;12.348;2024-02-16T04:05:20;9.60;99.90
18191;DHT22;47004;51.366;12.348;2024-02-16T04:07:21;9.50;99.90
18191;DHT22;47004;51.366;12.348;2024-02-16T04:09:24;9.50;99.90
18191;DHT22;47004;51.366;12.348;2024-02-16T04:11:26;9.60;99.90
18191;DHT22;47004;51.366;12.348;2024-02-16T04:13:29;9.60;99.90
18191;DHT22;47004;51.366;12.348;2024-02-16T04:15:33;9.60;99.90
18191;DHT22;47004;51.366;12.348;2024-02-16T04:17:36;9.60;99.90
18191;DHT22;47004;51.366;12.348;2024-02-16T04:19:38;9.60;99.90
18191;DHT22;47004;51.366;12.348;2024-02-16T04:21:40;9.60;99.90
18191;DHT22;47004;51.366;12.348;2024-02-16T04:23:42;9.60;99.90
18191;DHT22;47004;51.366;12.348;2024-02-16T04:25:44;9.70;99.90
18191;DHT22;47004;51.366;12.348;2024-02-16T04:27:45;9.70;99.90
18191;DHT22;47004;51.366;12.348;2024-02-16T04:29:47;9.70;99.90
18191;DHT22;47004;51.366;12.348;2024-02-16T04:31:49;9.70;99.90
18191;DHT22;47004;51.366;12.348;2024-02-16T04:33:52;9.70;99.90
18191;DHT22;47004;51.366;12.348;2024-02-16T04:35:56;9.70;99.90
18191;DHT22;47004;51.366;12.348;2024-02-16T04:37:58;9.70;99.90
18191;DHT22;47004;51.366;12.348;2024-02-16T04:40:00;9.80;99.90
18191;DHT22;47004;51.366;12.348;2024-02-16T04:42:01;9.80;99.90
18191;DHT22;47004;51.366;12.348;2024-02-16T04:44:03;9.80;99.90
18191;DHT22;47004;51.366;12.348;2024-02-16T04:46:05;9.70;99.90
18191;DHT22;47004;51.366;12.348;2024-02-16T04:48:08;9.70;99.90
18191;DHT22;47004;51.366;12.348;2024-02-16T04:50:11;9.70;99.90
18191;DHT22;47004;51.366;12.348;2024-02-16T04:52:14;9.70;99.90
18191;DHT22;47004;51.366;12.348;2024-02-16T04:54:15;9.80;99.90
18191;DHT22;47004;51.366;12.348;2024-02-16T04:56:17;9.80;99.90
18191;DHT22;47004;51.366;12.348;2024-02-16T04:58:19;9.80;99.90
18191;DHT22;47004;51.366;12.348;2024-02-16T05:00:21;9.80;99.90
18191;DHT22;47004;51.366;12.348;2024-02-16T05:02:23;9.80;99.90
18191;DHT22;47004;51.366;12.348;2024-02-16T05:04:25;9.80;99.90
18191;DHT22;47004;51.366;12.348;2024-02-16T05:06:28;9.80;99.90
18191;DHT22;47004;51.366;12.348;2024-02-16T05:08:30;9.90;99.90
18191;DHT22;47004;51.366;12.348;2024-02-16T05:10:32;9.80;99.90
18191;DHT22;47004;51.366;12.348;2024-02-16T05:12:34;9.80;99.90
18191;DHT22;47004;51.366;12.348;2024-02-16T05:14:36;9.80;99.90
18191;DHT22;47004;51.366;12.348;2024-02-16T05:16:42;9.80;99.90
18191;DHT22;47004;51.366;12.348;2024-02-16T05:18:44;9.80;99.90
18191;DHT22;47004;51.366;12.348;2024-02-16T05:20:45;9.80;99.90
18191;DHT22;47004;51.366;12.348;2024-02-16T05:22:49;9.80;99.90
18191;DHT22;47004;51.366;12.348;2024-02-16T05:24:51;9.80;99.90
18191;DHT22;47004;51.366;12.348;2024-02-16T05:26:56;9.80;99.90
18191;DHT22;47004;51.366;12.348;2024-02-16T05:28:59;9.80;99.90
18191;DHT22;47004;51.366;12.348;2024-02-16T05:31:12;9.90;99.90
18191;DHT22;47004;51.366;12.348;2024-02-16T05:33:15;9.80;99.90
18191;DHT22;47004;51.366;12.348;2024-02-16T05:35:17;9.90;99.90
18191;DHT22;47004;51.366;12.348;2024-02-16T05:37:19;9.80;99.90
18191;DHT22;47004;51.366;12.348;2024-02-16T05:39:24;9.80;99.90
18191;DHT22;47004;51.366;12.348;2024-02-16T05:41:31;9.80;99.90
18191;DHT22;47004;51.366;12.348;2024-02-16T05:43:34;9.80;99.90
18191;DHT22;47004;51.366;12.348;2024-02-16T05:45:36;9.70;99.90
18191;DHT22;47004;51.366;12.348;2024-02-16T05:47:38;9.70;99.90
18191;DHT22;47004;51.366;12.348;2024-02-16T05:49:40;9.80;99.90
18191;DHT22;47004;51.366;12.348;2024-02-16T05:51:41;9.80;99.90
18191;DHT22;47004;51.366;12.348;2024-02-16T05:54:00;9.70;99.90
18191;DHT22;47004;51.366;12.348;2024-02-16T05:56:05;9.80;99.90
18191;DHT22;47004;51.366;12.348;2024-02-16T05:58:07;9.80;99.90
18191;DHT22;47004;51.366;12.348;2024-02-16T06:00:09;9.80;99.90
18191;DHT22;47004;51.366;12.348;2024-02-16T06:02:11;9.80;99.90
18191;DHT22;47004;51.366;12.348;2024-02-16T06:04:13;9.80;99.90
18191;DHT22;47004;51.366;12.348;2024-02-16T06:06:14;9.80;99.90
18191;DHT22;47004;51.366;12.348;2024-02-16T06:08:16;9.80;99.90
18191;DHT22;47004;51.366;12.348;2024-02-16T06:10:20;9.80;99.90
18191;DHT22;47004;51.366;12.348;2024-02-16T06:12:24;9.80;99.90
18191;DHT22;47004;51.366;12.348;2024-02-16T06:14:26;9.90;99.90
18191;DHT22;47004;51.366;12.348;2024-02-16T06:16:27;9.90;99.90
18191;DHT22;47004;51.366;12.348;2024-02-16T06:18:29;9.80;99.90
18191;DHT22;47004;51.366;12.348;2024-02-16T06:20:31;9.90;99.90
18191;DHT22;47004;51.366;12.348;2024-02-16T06:22:33;9.80;99.90
18191;DHT22;47004;51.366;12.348;2024-02-16T06:24:34;9.80;99.90
18191;DHT22;47004;51.366;12.348;2024-02-16T06:26:36;9.80;99.90
18191;DHT22;47004;51.366;12.348;2024-02-16T06:28:40;9.80;99.90
18191;DHT22;47004;51.366;12.348;2024-02-16T06:30:41;9.80;99.90
18191;DHT22;47004;51.366;12.348;2024-02-16T06:32:43;9.90;99.90
18191;DHT22;47004;51.366;12.348;2024-02-16T06:34:45;9.90;99.90
18191;DHT22;47004;51.366;12.348;2024-02-16T06:36:47;9.90;99.90
18191;DHT22;47004;51.366;12.348;2024-02-16T06:38:50;9.90;99.90
18191;DHT22;47004;51.366;12.348;2024-02-16T06:40:52;9.90;99.90
18191;DHT22;47004;51.366;12.348;2024-02-16T06:42:53;9.90;99.90
18191;DHT22;47004;51.366;12.348;2024-02-16T06:44:57;9.90;99.90
18191;DHT22;47004;51.366;12.348;2024-02-16T06:46:59;9.90;99.90
18191;DHT22;47004;51.366;12.348;2024-02-16T06:49:01;10.00;99.90
18191;DHT22;47004;51.366;12.348;2024-02-16T06:51:04;10.00;99.90
18191;DHT22;47004;51.366;12.348;2024-02-16T06:53:06;9.90;99.90
18191;DHT22;47004;51.366;12.348;2024-02-16T06:55:08;9.90;99.90
18191;DHT22;47004;51.366;12.348;2024-02-16T06:57:10;10.00;99.90
18191;DHT22;47004;51.366;12.348;2024-02-16T06:59:12;10.00;99.90
18191;DHT22;47004;51.366;12.348;2024-02-16T07:01:15;10.00;99.90
18191;DHT22;47004;51.366;12.348;2024-02-16T07:03:17;10.00;99.90
18191;DHT22;47004;51.366;12.348;2024-02-16T07:05:19;9.90;99.90
18191;DHT22;47004;51.366;12.348;2024-02-16T07:07:21;10.00;99.90
18191;DHT22;47004;51.366;12.348;2024-02-16T07:09:23;10.00;99.90
18191;DHT22;47004;51.366;12.348;2024-02-16T07:11:25;10.00;99.90
18191;DHT22;47004;51.366;12.348;2024-02-16T07:13:29;9.90;99.90
18191;DHT22;47004;51.366;12.348;2024-02-16T07:15:31;10.00;99.90
18191;DHT22;47004;51.366;12.348;2024-02-16T07:17:35;9.90;99.90
18191;DHT22;47004;51.366;12.348;2024-02-16T07:19:37;9.90;99.90
18191;DHT22;47004;51.366;12.348;2024-02-16T07:21:39;9.90;99.90
18191;DHT22;47004;51.366;12.348;2024-02-16T07:23:42;9.90;99.90
18191;DHT22;47004;51.366;12.348;2024-02-16T07:25:44;9.90;99.90
18191;DHT22;47004;51.366;12.348;2024-02-16T07:27:46;9.90;99.90
18191;DHT22;47004;51.366;12.348;2024-02-16T07:29:48;9.90;99.90
18191;DHT22;47004;51.366;12.348;2024-02-16T07:31:49;10.00;99.90
18191;DHT22;47004;51.366;12.348;2024-02-16T07:33:54;9.90;99.90
18191;DHT22;47004;51.366;12.348;2024-02-16T07:35:56;9.90;99.90
18191;DHT22;47004;51.366;12.348;2024-02-16T07:37:58;9.90;99.90
18191;DHT22;47004;51.366;12.348;2024-02-16T07:39:59;10.00;99.90
18191;DHT22;47004;51.366;12.348;2024-02-16T07:42:01;10.00;99.90
18191;DHT22;47004;51.366;12.348;2024-02-16T07:44:04;10.00;99.90
18191;DHT22;47004;51.366;12.348;2024-02-16T07:46:06;10.10;99.90
18191;DHT22;47004;51.366;12.348;2024-02-16T07:48:08;10.10;99.90
18191;DHT22;47004;51.366;12.348;2024-02-16T07:50:12;10.20;99.90
18191;DHT22;47004;51.366;12.348;2024-02-16T07:52:14;10.10;99.90
18191;DHT22;47004;51.366;12.348;2024-02-16T07:54:15;10.20;99.90
18191;DHT22;47004;51.366;12.348;2024-02-16T07:56:17;10.20;99.90
18191;DHT22;47004;51.366;12.348;2024-02-16T07:58:22;10.20;99.90
18191;DHT22;47004;51.366;12.348;2024-02-16T08:00:25;10.30;99.90
18191;DHT22;47004;51.366;12.348;2024-02-16T08:02:27;10.30;99.90
18191;DHT22;47004;51.366;12.348;2024-02-16T08:04:31;10.30;99.90
18191;DHT22;47004;51.366;12.348;2024-02-16T08:06:34;10.40;99.90
18191;DHT22;47004;51.366;12.348;2024-02-16T08:08:36;10.40;99.90
18191;DHT22;47004;51.366;12.348;2024-02-16T08:10:38;10.40;99.90
18191;DHT22;47004;51.366;12.348;2024-02-16T08:12:40;10.40;99.90
18191;DHT22;47004;51.366;12.348;2024-02-16T08:14:42;10.40;99.90
18191;DHT22;47004;51.366;12.348;2024-02-16T08:16:45;10.50;99.90
18191;DHT22;47004;51.366;12.348;2024-02-16T08:18:47;10.50;99.90
18191;DHT22;47004;51.366;12.348;2024-02-16T08:20:52;10.60;99.90
18191;DHT22;47004;51.366;12.348;2024-02-16T08:22:55;10.60;99.90
18191;DHT22;47004;51.366;12.348;2024-02-16T08:25:00;10.70;99.90
18191;DHT22;47004;51.366;12.348;2024-02-16T08:27:04;10.80;99.90
18191;DHT22;47004;51.366;12.348;2024-02-16T08:29:06;10.80;99.90
18191;DHT22;47004;51.366;12.348;2024-02-16T08:31:09;10.90;99.90
18191;DHT22;47004;51.366;12.348;2024-02-16T08:33:11;11.00;99.90
18191;DHT22;47004;51.366;12.348;2024-02-16T08:35:13;11.00;99.90
18191;DHT22;47004;51.366;12.348;2024-02-16T08:37:17;11.10;99.90
18191;DHT22;47004;51.366;12.348;2024-02-16T08:39:20;11.20;99.90
18191;DHT22;47004;51.366;12.348;2024-02-16T08:41:22;11.30;99.90
18191;DHT22;47004;51.366;12.348;2024-02-16T08:43:25;11.40;99.90
18191;DHT22;47004;51.366;12.348;2024-02-16T08:45:27;11.50;99.90
18191;DHT22;47004;51.366;12.348;2024-02-16T08:47:29;11.60;99.90
18191;DHT22;47004;51.366;12.348;2024-02-16T08:49:31;11.70;99.90
18191;DHT22;47004;51.366;12.348;2024-02-16T08:51:32;11.70;99.90
18191;DHT22;47004;51.366;12.348;2024-02-16T08:53:35;11.80;99.90
18191;DHT22;47004;51.366;12.348;2024-02-16T08:55:39;11.90;99.90
18191;DHT22;47004;51.366;12.348;2024-02-16T08:57:41;12.00;99.90
18191;DHT22;47004;51.366;12.348;2024-02-16T08:59:46;12.00;99.90
18191;DHT22;47004;51.366;12.348;2024-02-16T09:01:48;12.10;99.90
18191;DHT22;47004;51.366;12.348;2024-02-16T09:03:48;12.10;99.90
18191;DHT22;47004;51.366;12.348;2024-02-16T09:05:50;12.20;99.90
18191;DHT22;47004;51.366;12.348;2024-02-16T09:07:52;12.20;99.90
18191;DHT22;47004;51.366;12.348;2024-02-16T09:09:54;12.20;99.90
18191;DHT22;47004;51.366;12.348;2024-02-16T09:11:58;12.30;99.90
18191;DHT22;47004;51.366;12.348;2024-02-16T09:14:00;12.30;99.90
18191;DHT22;47004;51.366;12.348;2024-02-16T09:16:03;12.40;99.90
18191;DHT22;47004;51.366;12.348;2024-02-16T09:18:05;12.40;99.90
18191;DHT22;47004;51.366;12.348;2024-02-16T09:20:10;12.50;99.90
18191;DHT22;47004;51.366;12.348;2024-02-16T09:22:12;12.60;99.90
18191;DHT22;47004;51.366;12.348;2024-02-16T09:24:14;12.70;99.90
18191;DHT22;47004;51.366;12.348;2024-02-16T09:26:18;12.80;99.90
18191;DHT22;47004;51.366;12.348;2024-02-16T09:28:21;12.80;99.90
18191;DHT22;47004;51.366;12.348;2024-02-16T09:30:23;12.90;99.90
18191;DHT22;47004;51.366;12.348;2024-02-16T09:32:25;12.90;99.90
18191;DHT22;47004;51.366;12.348;2024-02-16T09:34:26;13.00;99.90
18191;DHT22;47004;51.366;12.348;2024-02-16T09:36:27;13.10;99.90
18191;DHT22;47004;51.366;12.348;2024-02-16T09:38:29;13.10;99.90
18191;DHT22;47004;51.366;12.348;2024-02-16T09:40:31;13.10;99.90
18191;DHT22;47004;51.366;12.348;2024-02-16T09:42:38;13.20;99.90
18191;DHT22;47004;51.366;12.348;2024-02-16T09:44:41;13.20;99.90
18191;DHT22;47004;51.366;12.348;2024-02-16T09:46:44;13.30;99.90
18191;DHT22;47004;51.366;12.348;2024-02-16T09:48:46;13.30;99.90
18191;DHT22;47004;51.366;12.348;2024-02-16T09:50:53;13.40;99.90
18191;DHT22;47004;51.366;12.348;2024-02-16T09:52:56;13.40;99.90
18191;DHT22;47004;51.366;12.348;2024-02-16T09:54:59;13.50;99.90
18191;DHT22;47004;51.366;12.348;2024-02-16T09:57:00;13.60;99.90
18191;DHT22;47004;51.366;12.348;2024-02-16T09:59:02;13.70;99.90
18191;DHT22;47004;51.366;12.348;2024-02-16T10:01:16;13.70;99.90
18191;DHT22;47004;51.366;12.348;2024-02-16T10:03:23;13.80;99.90
18191;DHT22;47004;51.366;12.348;2024-02-16T10:05:24;13.90;99.90
18191;DHT22;47004;51.366;12.348;2024-02-16T10:07:31;13.90;99.90
18191;DHT22;47004;51.366;12.348;2024-02-16T10:09:33;14.00;99.90
18191;DHT22;47004;51.366;12.348;2024-02-16T10:11:35;14.10;99.90
18191;DHT22;47004;51.366;12.348;2024-02-16T10:13:39;14.20;99.90
18191;DHT22;47004;51.366;12.348;2024-02-16T10:15:40;14.30;99.90
18191;DHT22;47004;51.366;12.348;2024-02-16T10:17:43;14.30;99.90
18191;DHT22;47004;51.366;12.348;2024-02-16T10:19:55;14.40;99.90
18191;DHT22;47004;51.366;12.348;2024-02-16T10:24:09;14.60;99.90
18191;DHT22;47004;51.366;12.348;2024-02-16T10:26:11;14.70;99.90
18191;DHT22;47004;51.366;12.348;2024-02-16T10:28:13;14.80;99.90
18191;DHT22;47004;51.366;12.348;2024-02-16T10:30:17;14.80;99.90
18191;DHT22;47004;51.366;12.348;2024-02-16T10:32:19;14.90;99.90
18191;DHT22;47004;51.366;12.348;2024-02-16T10:34:24;14.90;99.90
18191;DHT22;47004;51.366;12.348;2024-02-16T10:36:27;14.80;99.90
18191;DHT22;47004;51.366;12.348;2024-02-16T10:38:30;14.90;99.90
18191;DHT22;47004;51.366;12.348;2024-02-16T10:40:34;14.90;99.90
18191;DHT22;47004;51.366;12.348;2024-02-16T10:42:38;14.90;99.90
18191;DHT22;47004;51.366;12.348;2024-02-16T10:44:43;14.90;99.90
18191;DHT22;47004;51.366;12.348;2024-02-16T10:46:45;15.00;99.90
18191;DHT22;47004;51.366;12.348;2024-02-16T10:48:47;15.00;99.90
18191;DHT22;47004;51.366;12.348;2024-02-16T10:50:52;15.00;99.90
18191;DHT22;47004;51.366;12.348;2024-02-16T10:52:56;15.10;99.90
18191;DHT22;47004;51.366;12.348;2024-02-16T10:55:00;15.10;99.90
18191;DHT22;47004;51.366;12.348;2024-02-16T10:57:08;15.10;99.90
18191;DHT22;47004;51.366;12.348;2024-02-16T10:59:10;15.10;99.90
18191;DHT22;47004;51.366;12.348;2024-02-16T11:01:15;15.10;99.90
18191;DHT22;47004;51.366;12.348;2024-02-16T11:03:17;15.00;99.90
18191;DHT22;47004;51.366;12.348;2024-02-16T11:05:20;14.90;99.90
18191;DHT22;47004;51.366;12.348;2024-02-16T11:07:25;14.90;99.90
18191;DHT22;47004;51.366;12.348;2024-02-16T11:09:27;14.90;99.90
18191;DHT22;47004;51.366;12.348;2024-02-16T11:11:29;14.90;99.90
18191;DHT22;47004;51.366;12.348;2024-02-16T11:13:32;14.90;99.90
18191;DHT22;47004;51.366;12.348;2024-02-16T11:15:35;14.80;99.90
18191;DHT22;47004;51.366;12.348;2024-02-16T11:17:38;14.80;99.90
18191;DHT22;47004;51.366;12.348;2024-02-16T11:19:42;14.80;99.90
18191;DHT22;47004;51.366;12.348;2024-02-16T11:21:56;14.80;99.90
18191;DHT22;47004;51.366;12.348;2024-02-16T11:24:06;14.80;99.90
18191;DHT22;47004;51.366;12.348;2024-02-16T11:26:10;14.80;99.90
18191;DHT22;47004;51.366;12.348;2024-02-16T11:28:13;14.80;99.90
18191;DHT22;47004;51.366;12.348;2024-02-16T11:30:15;14.70;99.90
18191;DHT22;47004;51.366;12.348;2024-02-16T11:32:18;14.70;99.90
18191;DHT22;47004;51.366;12.348;2024-02-16T11:34:24;14.70;99.90
18191;DHT22;47004;51.366;12.348;2024-02-16T11:36:27;14.60;99.90
18191;DHT22;47004;51.366;12.348;2024-02-16T11:38:31;14.60;99.90
18191;DHT22;47004;51.366;12.348;2024-02-16T11:40:34;14.60;99.90
18191;DHT22;47004;51.366;12.348;2024-02-16T11:42:36;14.60;99.90
18191;DHT22;47004;51.366;12.348;2024-02-16T11:44:41;14.60;99.90
18191;DHT22;47004;51.366;12.348;2024-02-16T11:46:53;14.70;99.90
18191;DHT22;47004;51.366;12.348;2024-02-16T11:49:04;14.70;99.90
18191;DHT22;47004;51.366;12.348;2024-02-16T11:51:06;14.80;99.90
18191;DHT22;47004;51.366;12.348;2024-02-16T11:53:08;14.90;99.90
18191;DHT22;47004;51.366;12.348;2024-02-16T11:55:11;14.90;99.90
18191;DHT22;47004;51.366;12.348;2024-02-16T11:57:17;14.90;99.90
18191;DHT22;47004;51.366;12.348;2024-02-16T11:59:19;15.00;99.90
18191;DHT22;47004;51.366;12.348;2024-02-16T12:01:21;15.10;99.90
18191;DHT22;47004;51.366;12.348;2024-02-16T12:03:24;15.20;99.90
18191;DHT22;47004;51.366;12.348;2024-02-16T12:05:27;15.30;99.90
18191;DHT22;47004;51.366;12.348;2024-02-16T12:07:30;15.40;99.90
18191;DHT22;47004;51.366;12.348;2024-02-16T12:09:33;15.50;99.90
18191;DHT22;47004;51.366;12.348;2024-02-16T12:11:36;15.70;99.90
18191;DHT22;47004;51.366;12.348;2024-02-16T12:13:39;15.80;99.90
18191;DHT22;47004;51.366;12.348;2024-02-16T12:15:42;15.90;99.90
18191;DHT22;47004;51.366;12.348;2024-02-16T12:17:45;16.10;99.90
18191;DHT22;47004;51.366;12.348;2024-02-16T12:19:47;16.30;99.90
18191;DHT22;47004;51.366;12.348;2024-02-16T12:21:49;16.60;99.90
18191;DHT22;47004;51.366;12.348;2024-02-16T12:23:52;16.70;99.90
18191;DHT22;47004;51.366;12.348;2024-02-16T12:25:54;16.80;99.90
18191;DHT22;47004;51.366;12.348;2024-02-16T12:27:56;16.90;99.90
18191;DHT22;47004;51.366;12.348;2024-02-16T12:30:01;16.90;99.90
18191;DHT22;47004;51.366;12.348;2024-02-16T12:32:06;16.90;99.90
18191;DHT22;47004;51.366;12.348;2024-02-16T12:34:10;16.90;99.90
18191;DHT22;47004;51.366;12.348;2024-02-16T12:36:11;17.00;99.90
18191;DHT22;47004;51.366;12.348;2024-02-16T12:38:18;17.00;99.90
18191;DHT22;47004;51.366;12.348;2024-02-16T12:40:20;17.20;99.90
18191;DHT22;47004;51.366;12.348;2024-02-16T12:42:22;17.30;99.90
18191;DHT22;47004;51.366;12.348;2024-02-16T12:44:24;17.50;99.90
18191;DHT22;47004;51.366;12.348;2024-02-16T12:46:28;17.70;99.90
18191;DHT22;47004;51.366;12.348;2024-02-16T12:48:30;17.90;99.90
18191;DHT22;47004;51.366;12.348;2024-02-16T12:50:31;18.00;99.90
18191;DHT22;47004;51.366;12.348;2024-02-16T12:52:33;17.90;99.90